AirNav   TITAN Aviation Fuels
 
 479 users online  

77LA St. Mary Medical Heliport
Shreveport, Louisiana, USA

GOING TO SHREVEPORT?


FAA INFORMATION EFFECTIVE 08 SEPTEMBER 2022

Location

FAA Identifier: 77LA
Lat/Long: 32-29-41.5490N 093-44-59.6430W
32-29.692483N 093-44.994050W
32.4948747,-93.7499008
(estimated)
Elevation: 60 ft. / 18 m (estimated)
Variation: 05E (1985)
Time zone: UTC -5 (UTC -6 during Standard Time)
Zip code: 71101

Heliport Operations

Heliport use: Private use, MEDICAL.
Activation date: 12/1983
Control tower: no
ARTCC: FORT WORTH CENTER
FSS: DE RIDDER FLIGHT SERVICE STATION
Attendance: CONTINUOUS
Wind indicator: yes
Segmented circle: no
Lights: SS-SR
Beacon: white-green-yellow (heliport)
Operates sunset to sunrise.

Heliport Communications

UNICOM: 123.05
WX ASOS at DTN (2.8 nm N): 118.525 (318-425-7967)
WX ASOS at SHV (5 nm SW): 128.45 (318-636-5767)

Nearby radio navigation aids

VOR radial/distance  VOR name  Freq  Var
EMGr299/9.7ELM GROVE VORTAC111.2007E
EICr163/16.9BELCHER VORTAC117.4007E

 
NDB name  Hdg/Dist  Freq  Var  ID
CARTHAGE052/33.533204ERPF .-. .--. ..-.

Heliport Services

Runway Information

Helipad H1

Dimensions: 60 x 50 ft. / 18 x 15 m
Surface: ROOF/TOP
40FT BY 40FT ROOFTOP HELIPAD.
Runway edge lights: PERI
Latitude: 32-29.692500N
Longitude: 093-44.994000W
Elevation: 60.0 ft.
Traffic pattern: leftleft

Heliport Ownership and Management from official FAA records

Ownership: Privately-owned
Owner: OCHSNER LSU HEALTH SHREVEPORT
ONE ST. MARY PLACE
SHREVEPORT, LA 71101
Phone 318-626-4300
ST. MARY MEDICAL CENTER, LLC
Manager: RILEY WADDELL
ONE ST. MARY PLACE
SHREVEPORT, LA 71101
Phone 318-626-4300

Heliport Operational Statistics

Aircraft based on the field: 1
Helicopters: 1
    

Additional Remarks

FOR CD CTC FORT WORTH ARTCC AT 817-858-7584.

Instrument Procedures

There are no published instrument procedures at 77LA.

Some nearby airports with instrument procedures:

KDTN - Shreveport Downtown Airport (3 nm N)
KBAD - Barksdale Air Force Base (4 nm E)
KSHV - Shreveport Regional Airport (5 nm SW)
KMNE - Minden Airport (25 nm E)
3F3 - C E 'Rusty' Williams Airport (25 nm S)
 
Loc | Ops | Rwys | IFR | FBO | Links
Com | Nav | Svcs | Stats | Notes
Area around 77LA (St. Mary Medical Heliport)
 
Road maps at: MapQuest Bing Google
 
Aerial photo
No photo
 
Sectional chart

 
Airport distance calculator
Flying to St. Mary Medical Heliport? Find the distance to fly.

From to 77LA

Sunrise and sunset
Times for 02-Oct-2022
 Local
(UTC-5)
 Zulu
(UTC)
Morning civil twilight06:4611:46
Sunrise07:1112:11
Sunset18:5823:58
Evening civil twilight19:2300:23

Current date and time
Zulu (UTC)  02-Oct-2022 11:02:09
Local (UTC-5)  02-Oct-2022 06:02:09
 
METAR
KDTN 
3nm N 
021053Z AUTO 32003KT 10SM CLR 12/10 A3013 RMK AO2 SLP202 T01170100
KBAD 
4nm E 
021055Z AUTO 00000KT 10SM CLR 10/08 A3012 RMK AO2 SLP203 T01000084
KSHV 
5nm SW 
021056Z 00000KT 10SM CLR 12/10 A3012 RMK AO2 SLP198 T01220100
TAF
KBAD 
4nm E 
012200Z 0122/0302 01010KT 9999 SKC QNH3001INS BECMG 0200/0201 02005KT 9999 SKC QNH3003INS WND 05010KT AFT 0215 TX29/0220Z TN11/0212Z LAST NO AMDS AFT 0122 NEXT 0212
KSHV 
5nm SW 
020520Z 0206/0306 00000KT P6SM SKC FM021500 05007KT P6SM SKC FM030000 00000KT P6SM SKC
NOTAMs
Click for the latest NOTAMs
NOTAMs are issued by the DoD/FAA and will open in a separate window not controlled by AirNav.

 

 
 

Would you like to see your business listed on this page?

 If your business provides an interesting product or service to pilots, flight crews, aircraft, or users of the St. Mary Medical Heliport, you should consider listing it here.  To start the listing process, click on the button below
 
Add a business
 

Other Pages about St. Mary Medical Heliport

Update a link
 
Copyright © AirNav, LLC. All rights reserved. Privacy Policy  Contact